<?xml version="1.0" encoding="utf-8"?>
<gpx xmlns:xsi="http://www.w3.org/2001/XMLSchema-instance" xmlns:xsd="http://www.w3.org/2001/XMLSchema" version="1.1" creator="Shapelink.com" xmlns="http://www.topografix.com/GPX/1/1" xmlns:gpxtpx="http://www.garmin.com/xmlschemas/TrackPointExtension/v1">
  <metadata>
    <name>Övrigt 2.15 km, 2020-06-26</name>
    <desc></desc>
    <author><name>Marian Moron</name></author> 
    <time>2020-06-26T20:30:27Z</time>
  </metadata>
  <trk>
    <name>Övrigt 2.15 km, 2020-06-26</name>
    <trkseg>
      <trkpt lat="51.229748005308" lon="4.457969589911">
        <ele>15.6</ele>
        <time>2020-06-26T20:30:27Z</time>
      </trkpt>
      <trkpt lat="51.229869039944" lon="4.458004290977">
        <ele>20</ele>
        <time>2020-06-26T20:30:38Z</time>
      </trkpt>
      <trkpt lat="51.229985548354" lon="4.458340321348">
        <ele>24.4</ele>
        <time>2020-06-26T20:31:36Z</time>
      </trkpt>
      <trkpt lat="51.230006335466" lon="4.458509551909">
        <ele>23</ele>
        <time>2020-06-26T20:31:49Z</time>
      </trkpt>
      <trkpt lat="51.23000767657" lon="4.458837032742">
        <ele>19.6</ele>
        <time>2020-06-26T20:32:06Z</time>
      </trkpt>
      <trkpt lat="51.230328032788" lon="4.458936609714">
        <ele>20</ele>
        <time>2020-06-26T20:33:08Z</time>
      </trkpt>
      <trkpt lat="51.230507405448" lon="4.459525773465">
        <ele>15.6</ele>
        <time>2020-06-26T20:34:46Z</time>
      </trkpt>
      <trkpt lat="51.230504555602" lon="4.459770189669">
        <ele>14.4</ele>
        <time>2020-06-26T20:35:35Z</time>
      </trkpt>
      <trkpt lat="51.230576472304" lon="4.459695590759">
        <ele>12</ele>
        <time>2020-06-26T20:35:46Z</time>
      </trkpt>
      <trkpt lat="51.230723574649" lon="4.459740601562">
        <ele>7</ele>
        <time>2020-06-26T20:36:05Z</time>
      </trkpt>
      <trkpt lat="51.231165552236" lon="4.459610514474">
        <ele>5.8</ele>
        <time>2020-06-26T20:36:50Z</time>
      </trkpt>
      <trkpt lat="51.231619180664" lon="4.459618561098">
        <ele>3.2</ele>
        <time>2020-06-26T20:37:33Z</time>
      </trkpt>
      <trkpt lat="51.231659413784" lon="4.459336258706">
        <ele>3.8</ele>
        <time>2020-06-26T20:38:59Z</time>
      </trkpt>
      <trkpt lat="51.231680619991" lon="4.459202399763">
        <ele>5.2</ele>
        <time>2020-06-26T20:39:17Z</time>
      </trkpt>
      <trkpt lat="51.231811629088" lon="4.459131907984">
        <ele>7.8</ele>
        <time>2020-06-26T20:39:31Z</time>
      </trkpt>
      <trkpt lat="51.231833505847" lon="4.459129393414">
        <ele>7.8</ele>
        <time>2020-06-26T20:39:33Z</time>
      </trkpt>
      <trkpt lat="51.232185461828" lon="4.459342712769">
        <ele>8.6</ele>
        <time>2020-06-26T20:40:14Z</time>
      </trkpt>
      <trkpt lat="51.232247739345" lon="4.459384119355">
        <ele>5</ele>
        <time>2020-06-26T20:40:41Z</time>
      </trkpt>
      <trkpt lat="51.232411773128" lon="4.459401218431">
        <ele>4.2</ele>
        <time>2020-06-26T20:41:00Z</time>
      </trkpt>
      <trkpt lat="51.232589888503" lon="4.459321758019">
        <ele>6.6</ele>
        <time>2020-06-26T20:41:52Z</time>
      </trkpt>
      <trkpt lat="51.232750401888" lon="4.459339024733">
        <ele>8</ele>
        <time>2020-06-26T20:42:09Z</time>
      </trkpt>
      <trkpt lat="51.232756269218" lon="4.459389651409">
        <ele>4.8</ele>
        <time>2020-06-26T20:42:15Z</time>
      </trkpt>
      <trkpt lat="51.232776301959" lon="4.459468525088">
        <ele>4.8</ele>
        <time>2020-06-26T20:42:30Z</time>
      </trkpt>
      <trkpt lat="51.232807147351" lon="4.459570868087">
        <ele>4.8</ele>
        <time>2020-06-26T20:42:41Z</time>
      </trkpt>
      <trkpt lat="51.232891217808" lon="4.460087360765">
        <ele>3.8</ele>
        <time>2020-06-26T20:43:11Z</time>
      </trkpt>
      <trkpt lat="51.232735733563" lon="4.460172856145">
        <ele>8.4</ele>
        <time>2020-06-26T20:43:54Z</time>
      </trkpt>
      <trkpt lat="51.232702792696" lon="4.460197666569">
        <ele>10.6</ele>
        <time>2020-06-26T20:43:58Z</time>
      </trkpt>
      <trkpt lat="51.232630624537" lon="4.460214095093">
        <ele>14</ele>
        <time>2020-06-26T20:44:06Z</time>
      </trkpt>
      <trkpt lat="51.232447731479" lon="4.46027804899">
        <ele>22.2</ele>
        <time>2020-06-26T20:44:33Z</time>
      </trkpt>
      <trkpt lat="51.232150509305" lon="4.46045742165">
        <ele>22.2</ele>
        <time>2020-06-26T20:45:05Z</time>
      </trkpt>
      <trkpt lat="51.232033414162" lon="4.460565799617">
        <ele>25</ele>
        <time>2020-06-26T20:45:21Z</time>
      </trkpt>
      <trkpt lat="51.232123687225" lon="4.461274824538">
        <ele>16</ele>
        <time>2020-06-26T20:45:58Z</time>
      </trkpt>
      <trkpt lat="51.232184623638" lon="4.461571292341">
        <ele>0</ele>
        <time>2020-06-26T20:46:20Z</time>
      </trkpt>
      <trkpt lat="51.232152185685" lon="4.46184378791">
        <ele>0</ele>
        <time>2020-06-26T20:46:37Z</time>
      </trkpt>
      <trkpt lat="51.232323511721" lon="4.462453738773">
        <ele>19.4</ele>
        <time>2020-06-26T20:47:32Z</time>
      </trkpt>
      <trkpt lat="51.23238813617" lon="4.462736544079">
        <ele>17.4</ele>
        <time>2020-06-26T20:47:55Z</time>
      </trkpt>
      <trkpt lat="51.232390734559" lon="4.463092188096">
        <ele>15.8</ele>
        <time>2020-06-26T20:48:44Z</time>
      </trkpt>
      <trkpt lat="51.232393752043" lon="4.463105766774">
        <ele>15.6</ele>
        <time>2020-06-26T20:48:45Z</time>
      </trkpt>
      <trkpt lat="51.232396434251" lon="4.463115154502">
        <ele>15.6</ele>
        <time>2020-06-26T20:48:46Z</time>
      </trkpt>
      <trkpt lat="51.232425100349" lon="4.463193106172">
        <ele>15</ele>
        <time>2020-06-26T20:48:52Z</time>
      </trkpt>
      <trkpt lat="51.232507242969" lon="4.46380179975">
        <ele>9</ele>
        <time>2020-06-26T20:50:01Z</time>
      </trkpt>
      <trkpt lat="51.232496346499" lon="4.463919816902">
        <ele>7.8</ele>
        <time>2020-06-26T20:50:13Z</time>
      </trkpt>
      <trkpt lat="51.232466506935" lon="4.464359279919">
        <ele>3</ele>
        <time>2020-06-26T20:50:54Z</time>
      </trkpt>
      <trkpt lat="51.232235920866" lon="4.464973924646">
        <ele>8.6</ele>
        <time>2020-06-26T20:51:40Z</time>
      </trkpt>
      <trkpt lat="51.231930065335" lon="4.465419003536">
        <ele>11.4</ele>
        <time>2020-06-26T20:52:50Z</time>
      </trkpt>
      <trkpt lat="51.231751698503" lon="4.465786046937">
        <ele>5.6</ele>
        <time>2020-06-26T20:53:26Z</time>
      </trkpt>
      <trkpt lat="51.231489093576" lon="4.466379653095">
        <ele>3.8</ele>
        <time>2020-06-26T20:54:09Z</time>
      </trkpt>
      <trkpt lat="51.231356408099" lon="4.466468668873">
        <ele>7.4</ele>
        <time>2020-06-26T20:54:31Z</time>
      </trkpt>
      <trkpt lat="51.230952651976" lon="4.4662870331">
        <ele>5.2</ele>
        <time>2020-06-26T20:55:50Z</time>
      </trkpt>
      <trkpt lat="51.230748217435" lon="4.465851341938">
        <ele>9.6</ele>
        <time>2020-06-26T20:57:08Z</time>
      </trkpt>
      <trkpt lat="51.230734638757" lon="4.465363850634">
        <ele>16.8</ele>
        <time>2020-06-26T20:57:47Z</time>
      </trkpt>
      <trkpt lat="51.230702284623" lon="4.464930338766">
        <ele>7.2</ele>
        <time>2020-06-26T20:58:28Z</time>
      </trkpt>
      <trkpt lat="51.230511764036" lon="4.464271689064">
        <ele>1.4</ele>
        <time>2020-06-26T20:59:17Z</time>
      </trkpt>
      <trkpt lat="51.230463484292" lon="4.464084605056">
        <ele>2</ele>
        <time>2020-06-26T20:59:30Z</time>
      </trkpt>
      <trkpt lat="51.230373378867" lon="4.463822251586">
        <ele>1</ele>
        <time>2020-06-26T20:59:49Z</time>
      </trkpt>
      <trkpt lat="51.230276567922" lon="4.463498626427">
        <ele>0</ele>
        <time>2020-06-26T21:00:30Z</time>
      </trkpt>
      <trkpt lat="51.230104738972" lon="4.462831343368">
        <ele>0</ele>
        <time>2020-06-26T21:01:13Z</time>
      </trkpt>
      <trkpt lat="51.229941208103" lon="4.462336895087">
        <ele>4.2</ele>
        <time>2020-06-26T21:01:46Z</time>
      </trkpt>
      <trkpt lat="51.22978639441" lon="4.461737421599">
        <ele>1.2</ele>
        <time>2020-06-26T21:02:36Z</time>
      </trkpt>
      <trkpt lat="51.229711041129" lon="4.461323774834">
        <ele>0.4</ele>
        <time>2020-06-26T21:03:04Z</time>
      </trkpt>
      <trkpt lat="51.229600148592" lon="4.461283374076">
        <ele>0.2</ele>
        <time>2020-06-26T21:03:24Z</time>
      </trkpt>
      <trkpt lat="51.229282809858" lon="4.461094781326">
        <ele>16.6</ele>
        <time>2020-06-26T21:04:31Z</time>
      </trkpt>
      <trkpt lat="51.229368389057" lon="4.460891017337">
        <ele>17.2</ele>
        <time>2020-06-26T21:04:54Z</time>
      </trkpt>
      <trkpt lat="51.229245091308" lon="4.460619946691">
        <ele>9.6</ele>
        <time>2020-06-26T21:05:12Z</time>
      </trkpt>
      <trkpt lat="51.229202595075" lon="4.460575774078">
        <ele>8.2</ele>
        <time>2020-06-26T21:05:17Z</time>
      </trkpt>
      <trkpt lat="51.22911919517" lon="4.460574349155">
        <ele>11.2</ele>
        <time>2020-06-26T21:05:26Z</time>
      </trkpt>
      <trkpt lat="51.22894568984" lon="4.460670573367">
        <ele>17.2</ele>
        <time>2020-06-26T21:05:52Z</time>
      </trkpt>
      <trkpt lat="51.228697920876" lon="4.460749782322">
        <ele>15.8</ele>
        <time>2020-06-26T21:06:26Z</time>
      </trkpt>
      <trkpt lat="51.228291817821" lon="4.460503103005">
        <ele>0</ele>
        <time>2020-06-26T21:07:13Z</time>
      </trkpt>
      <trkpt lat="51.228323669041" lon="4.46027301985">
        <ele>1.2</ele>
        <time>2020-06-26T21:07:22Z</time>
      </trkpt>
      <trkpt lat="51.228316712064" lon="4.459904970621">
        <ele>12.8</ele>
        <time>2020-06-26T21:07:55Z</time>
      </trkpt>
      <trkpt lat="51.228344456153" lon="4.459645466997">
        <ele>6</ele>
        <time>2020-06-26T21:08:13Z</time>
      </trkpt>
      <trkpt lat="51.22851653656" lon="4.458995115376">
        <ele>0</ele>
        <time>2020-06-26T21:09:10Z</time>
      </trkpt>
      <trkpt lat="51.228464652599" lon="4.458689092207">
        <ele>0</ele>
        <time>2020-06-26T21:09:46Z</time>
      </trkpt>
      <trkpt lat="51.228460126373" lon="4.458624048663">
        <ele>0</ele>
        <time>2020-06-26T21:09:51Z</time>
      </trkpt>
      <trkpt lat="51.228730861743" lon="4.458136222083">
        <ele>0</ele>
        <time>2020-06-26T21:10:37Z</time>
      </trkpt>
      <trkpt lat="51.229074352005" lon="4.458072687281">
        <ele>13</ele>
        <time>2020-06-26T21:11:10Z</time>
      </trkpt>
      <trkpt lat="51.229362521727" lon="4.45801493599">
        <ele>21.8</ele>
        <time>2020-06-26T21:11:43Z</time>
      </trkpt>
      <trkpt lat="51.229655888227" lon="4.457909659326">
        <ele>10.6</ele>
        <time>2020-06-26T21:12:59Z</time>
      </trkpt>
    </trkseg>
  </trk>
</gpx>